Time;durP1;ratioP1;P1;durP2;ratioP2;P2;SDS_P1;SDS_P2;PMS_P1;PMS_P2;Temp;Humidity;BMP_temperature;BMP_pressure;BME280_temperature;BME280_humidity;BME280_pressure;Samples;Min_cycle;Max_cycle;Signal;HPM_P1;HPM_P2
2022/11/28 00:01:12;;;;;;;7.40;4.38;;;6.60;99.90;;;;;;5154980;27;20097;-67
2022/11/28 00:03:37;;;;;;;6.18;3.90;;;6.80;99.90;;;;;;5155305;27;20162;-66
2022/11/28 00:06:05;;;;;;;7.18;3.80;;;6.60;99.90;;;;;;5136519;27;20490;-67
2022/11/28 00:08:31;;;;;;;7.25;3.40;;;6.20;99.90;;;;;;5136592;27;20031;-67
2022/11/28 00:10:57;;;;;;;5.90;3.53;;;6.30;99.90;;;;;;5136392;27;20474;-66
2022/11/28 00:13:23;;;;;;;5.63;3.40;;;6.30;99.90;;;;;;5102167;27;20093;-66
2022/11/28 00:15:59;;;;;;;5.43;4.03;;;6.40;99.90;;;;;;5154802;27;20468;-66
2022/11/28 00:18:25;;;;;;;6.28;3.60;;;6.40;99.90;;;;;;5155591;27;20428;-67
2022/11/28 00:20:51;;;;;;;6.53;3.65;;;6.50;99.90;;;;;;5154745;27;20043;-67
2022/11/28 00:23:17;;;;;;;6.07;3.67;;;6.90;99.90;;;;;;5154731;27;20051;-66
2022/11/28 00:25:43;;;;;;;4.38;3.10;;;6.60;99.90;;;;;;5136714;27;20085;-67
2022/11/28 00:28:08;;;;;;;4.93;3.38;;;6.80;99.90;;;;;;5157106;27;20203;-66
2022/11/28 00:30:37;;;;;;;6.18;3.70;;;6.90;99.90;;;;;;5123228;27;20078;-66
2022/11/28 00:33:03;;;;;;;5.38;3.42;;;6.70;99.90;;;;;;5158526;27;20039;-66
2022/11/28 00:35:30;;;;;;;7.50;3.25;;;6.40;99.90;;;;;;5158606;27;20053;-66
2022/11/28 00:37:55;;;;;;;6.80;3.15;;;7.40;99.90;;;;;;5158943;27;20061;-66
2022/11/28 00:40:21;;;;;;;4.63;3.10;;;6.50;99.90;;;;;;5158705;27;20038;-67
2022/11/28 00:42:47;;;;;;;6.05;3.15;;;6.60;99.90;;;;;;5158285;27;20056;-67
2022/11/28 00:45:13;;;;;;;5.95;3.17;;;6.40;99.90;;;;;;5157700;27;20050;-67
2022/11/28 00:47:38;;;;;;;5.28;2.72;;;6.30;99.90;;;;;;5158588;27;20106;-66
2022/11/28 00:50:05;;;;;;;7.85;3.28;;;6.70;99.90;;;;;;5158396;27;20042;-66
2022/11/28 00:52:32;;;;;;;5.97;3.75;;;6.20;99.90;;;;;;5158094;27;20561;-66
2022/11/28 00:54:57;;;;;;;6.75;3.53;;;6.80;99.90;;;;;;5158124;27;20042;-67
2022/11/28 00:57:23;;;;;;;6.55;3.45;;;6.60;99.90;;;;;;5139695;27;20049;-67
2022/11/28 00:59:49;;;;;;;7.13;3.65;;;6.40;99.90;;;;;;5139595;27;20053;-67
2022/11/28 01:02:15;;;;;;;5.10;3.78;;;6.90;99.90;;;;;;5157636;27;20042;-66
2022/11/28 01:04:40;;;;;;;6.75;3.47;;;7.00;99.90;;;;;;5157930;27;20038;-67
2022/11/28 01:07:06;;;;;;;5.43;3.33;;;6.90;99.90;;;;;;5157886;27;20069;-67
2022/11/28 01:09:32;;;;;;;5.88;3.95;;;6.60;99.90;;;;;;5157996;27;20481;-67
2022/11/28 01:11:57;;;;;;;5.97;3.70;;;6.40;99.90;;;;;;5139486;27;20467;-66
2022/11/28 01:14:24;;;;;;;6.20;4.10;;;6.40;99.90;;;;;;5157371;27;20050;-67
2022/11/28 01:16:50;;;;;;;8.15;3.90;;;6.60;99.90;;;;;;5157252;27;20487;-67
2022/11/28 01:19:17;;;;;;;6.35;3.97;;;6.80;99.90;;;;;;5157584;27;20039;-67
2022/11/28 01:21:42;;;;;;;6.05;3.97;;;6.80;99.90;;;;;;5157616;27;20042;-66
2022/11/28 01:24:09;;;;;;;7.13;3.60;;;6.30;99.90;;;;;;5157542;27;20050;-67
2022/11/28 01:26:38;;;;;;;8.23;4.50;;;6.80;99.90;;;;;;5139022;27;20043;-67
2022/11/28 01:29:03;;;;;;;6.18;4.20;;;6.70;99.90;;;;;;5157577;27;20129;-67
2022/11/28 01:31:29;;;;;;;7.53;4.25;;;6.30;99.90;;;;;;5157408;27;20528;-67
2022/11/28 01:33:56;;;;;;;8.07;4.43;;;6.50;99.90;;;;;;5157362;27;20053;-67
2022/11/28 01:36:22;;;;;;;9.82;4.53;;;6.50;99.90;;;;;;5158124;27;20043;-67
2022/11/28 01:38:49;;;;;;;7.10;4.75;;;6.70;99.90;;;;;;5156546;27;20035;-67
2022/11/28 01:41:18;;;;;;;7.32;4.50;;;6.50;99.90;;;;;;5139377;27;20047;-67
2022/11/28 01:44:27;;;;;;;7.22;4.70;;;6.40;99.90;;;;;;5156776;27;20122;-67
2022/11/28 01:46:53;;;;;;;7.72;4.55;;;6.40;99.90;;;;;;5138780;27;20452;-67
2022/11/28 01:49:30;;;;;;;6.00;4.30;;;7.20;99.90;;;;;;5156990;27;20125;-67
2022/11/28 01:52:04;;;;;;;7.82;4.40;;;6.50;99.90;;;;;;5157016;27;20048;-67
2022/11/28 01:54:32;;;;;;;5.78;4.07;;;6.40;99.90;;;;;;5157220;27;20042;-67
2022/11/28 01:57:05;;;;;;;6.20;4.05;;;7.30;99.90;;;;;;5156929;27;20121;-67
2022/11/28 01:59:36;;;;;;;5.20;4.10;;;6.30;99.90;;;;;;5157093;27;20055;-67
2022/11/28 02:02:06;;;;;;;9.02;4.50;;;6.60;99.90;;;;;;5156800;27;20054;-67
2022/11/28 02:04:33;;;;;;;9.38;4.68;;;6.60;99.90;;;;;;5156880;27;20054;-67
2022/11/28 02:06:58;;;;;;;7.13;4.15;;;6.50;99.90;;;;;;5156798;27;20097;-66
2022/11/28 02:09:24;;;;;;;9.60;4.80;;;6.90;99.90;;;;;;5156606;27;20078;-66
2022/11/28 02:12:08;;;;;;;9.18;4.90;;;6.60;99.90;;;;;;5156563;27;20050;-67
2022/11/28 02:15:12;;;;;;;6.75;4.55;;;6.60;99.90;;;;;;5155995;27;20541;-67
2022/11/28 02:17:43;;;;;;;7.82;5.38;;;6.60;99.90;;;;;;5145150;27;20058;-66
2022/11/28 02:20:52;;;;;;;7.93;5.00;;;6.50;99.90;;;;;;5156859;27;20394;-67
2022/11/28 02:23:37;;;;;;;7.22;4.45;;;6.50;99.90;;;;;;5072135;28;20098;-67
2022/11/28 02:26:20;;;;;;;7.18;5.03;;;6.30;99.90;;;;;;5118815;27;20046;-67
2022/11/28 02:29:02;;;;;;;8.48;5.18;;;6.50;99.90;;;;;;5156161;27;20038;-67
2022/11/28 02:31:49;;;;;;;7.57;4.82;;;6.50;99.90;;;;;;5155900;27;20524;-67
2022/11/28 02:34:49;;;;;;;8.77;5.88;;;6.40;99.90;;;;;;5156145;27;20042;-66
2022/11/28 02:37:27;;;;;;;10.45;5.90;;;6.80;99.90;;;;;;5141827;27;20059;-67
2022/11/28 02:39:59;;;;;;;12.57;5.85;;;6.40;99.90;;;;;;5156090;27;20038;-67
2022/11/28 02:42:39;;;;;;;8.98;5.45;;;6.70;99.90;;;;;;5156037;27;20042;-67
2022/11/28 02:45:22;;;;;;;10.82;4.95;;;6.30;99.90;;;;;;5155673;27;20042;-67
2022/11/28 02:48:01;;;;;;;10.13;6.10;;;6.50;99.90;;;;;;5137838;27;20042;-66
2022/11/28 02:50:41;;;;;;;9.70;6.00;;;6.60;99.90;;;;;;5155297;27;20042;-66
2022/11/28 02:53:12;;;;;;;9.13;5.22;;;6.60;99.90;;;;;;5155836;27;20039;-66
2022/11/28 02:55:40;;;;;;;10.63;5.75;;;7.00;99.90;;;;;;5137757;27;20459;-67
2022/11/28 02:58:06;;;;;;;10.10;4.93;;;6.80;99.90;;;;;;5155579;27;20148;-67
2022/11/28 03:00:35;;;;;;;8.55;5.30;;;7.00;99.90;;;;;;5155749;27;20062;-66
2022/11/28 03:03:04;;;;;;;9.07;5.85;;;6.60;99.90;;;;;;5155726;27;20047;-66
2022/11/28 03:05:47;;;;;;;8.95;5.28;;;6.80;99.90;;;;;;5155278;27;20554;-67
2022/11/28 03:08:38;;;;;;;8.95;5.20;;;6.40;99.90;;;;;;5155953;27;20050;-67
2022/11/28 03:11:06;;;;;;;7.15;5.20;;;6.60;99.90;;;;;;5156261;27;20414;-67
2022/11/28 03:13:51;;;;;;;8.63;5.50;;;6.40;99.90;;;;;;5154995;27;20046;-67
2022/11/28 03:16:22;;;;;;;9.18;5.35;;;6.70;99.90;;;;;;5155612;27;20387;-67
2022/11/28 03:18:57;;;;;;;9.20;5.32;;;6.90;99.90;;;;;;5137302;27;20045;-66
2022/11/28 03:21:36;;;;;;;12.23;6.22;;;6.50;99.90;;;;;;5155063;27;20504;-67
2022/11/28 03:24:10;;;;;;;8.32;5.50;;;6.80;99.90;;;;;;5155557;27;20482;-67
2022/11/28 03:26:45;;;;;;;7.28;5.35;;;6.60;99.90;;;;;;5137707;27;20051;-66
2022/11/28 03:29:27;;;;;;;9.93;5.32;;;6.80;99.90;;;;;;5155430;27;20386;-66
2022/11/28 03:31:58;;;;;;;10.60;5.25;;;7.00;99.90;;;;;;5137297;27;20038;-66
2022/11/28 03:34:31;;;;;;;9.63;5.65;;;7.10;99.90;;;;;;5119858;27;20054;-67
2022/11/28 03:37:02;;;;;;;10.38;5.47;;;6.80;99.90;;;;;;5155281;27;20490;-67
2022/11/28 03:39:34;;;;;;;9.13;5.38;;;6.60;99.90;;;;;;5155188;27;20045;-66
2022/11/28 03:42:09;;;;;;;9.87;5.93;;;6.90;99.90;;;;;;5155633;27;20518;-66
2022/11/28 03:44:41;;;;;;;10.82;6.40;;;6.90;99.90;;;;;;5154838;27;20473;-66
2022/11/28 03:47:08;;;;;;;11.23;5.97;;;6.90;99.90;;;;;;5155199;27;20053;-66
2022/11/28 03:49:39;;;;;;;11.65;5.57;;;7.10;99.90;;;;;;5155352;27;20394;-66
2022/11/28 03:52:17;;;;;;;8.10;5.22;;;7.00;99.90;;;;;;5155162;27;20054;-66
2022/11/28 03:54:48;;;;;;;9.40;5.88;;;6.70;99.90;;;;;;5155365;27;20043;-67
2022/11/28 03:57:44;;;;;;;8.02;5.75;;;6.70;99.90;;;;;;5155156;27;20402;-67
2022/11/28 04:00:14;;;;;;;9.27;5.57;;;6.70;99.90;;;;;;5155933;27;20051;-67
2022/11/28 04:03:07;;;;;;;9.25;5.90;;;6.70;99.90;;;;;;5138870;27;20150;-67
2022/11/28 04:05:51;;;;;;;10.85;5.82;;;6.70;99.90;;;;;;5159156;27;20049;-67
2022/11/28 04:08:31;;;;;;;9.07;5.90;;;7.10;99.90;;;;;;5159614;27;20082;-67
2022/11/28 04:11:09;;;;;;;9.40;5.18;;;6.70;99.90;;;;;;5140890;27;20501;-66
2022/11/28 04:13:51;;;;;;;8.27;5.43;;;6.80;99.90;;;;;;5158765;27;20091;-69
2022/11/28 04:16:24;;;;;;;9.07;4.88;;;6.90;99.90;;;;;;5159181;27;20050;-66
2022/11/28 04:19:12;;;;;;;9.18;5.72;;;6.70;99.90;;;;;;5159147;27;20038;-67
2022/11/28 04:21:58;;;;;;;12.48;6.35;;;7.10;99.90;;;;;;5158844;27;20082;-67
2022/11/28 04:24:28;;;;;;;11.20;5.47;;;6.70;99.90;;;;;;5158998;27;20043;-67
2022/11/28 04:26:59;;;;;;;10.20;5.80;;;6.80;99.90;;;;;;5158652;27;20090;-67
2022/11/28 04:29:30;;;;;;;8.18;5.32;;;7.40;99.90;;;;;;5158610;27;20039;-66
2022/11/28 04:31:58;;;;;;;7.63;5.43;;;7.00;99.90;;;;;;5158689;27;20107;-66
2022/11/28 04:34:24;;;;;;;11.05;6.22;;;7.20;99.90;;;;;;5158512;27;20055;-66
2022/11/28 04:36:53;;;;;;;9.80;5.53;;;7.70;99.90;;;;;;5158523;27;20094;-66
2022/11/28 04:39:22;;;;;;;9.98;6.20;;;7.10;99.90;;;;;;5158989;27;20489;-67
2022/11/28 04:42:01;;;;;;;9.40;6.68;;;7.20;99.90;;;;;;5158267;27;20078;-67
2022/11/28 04:44:39;;;;;;;9.57;5.90;;;6.90;99.90;;;;;;5139266;27;20054;-66
2022/11/28 04:47:05;;;;;;;11.48;6.78;;;7.20;99.90;;;;;;5158763;27;20043;-67
2022/11/28 04:49:31;;;;;;;10.70;6.55;;;7.40;99.90;;;;;;5158195;27;20039;-67
2022/11/28 04:52:19;;;;;;;10.18;6.78;;;7.20;99.90;;;;;;5158209;27;20053;-67
2022/11/28 04:55:08;;;;;;;11.32;7.20;;;6.90;99.90;;;;;;5158188;27;20045;-67
2022/11/28 04:57:38;;;;;;;9.65;7.25;;;6.90;99.90;;;;;;5158125;27;20379;-67
2022/11/28 05:00:08;;;;;;;10.70;6.93;;;6.80;99.90;;;;;;5158302;27;20398;-67
2022/11/28 05:02:35;;;;;;;12.00;7.60;;;7.00;99.90;;;;;;5157970;27;20097;-67
2022/11/28 05:05:00;;;;;;;11.23;7.88;;;6.90;99.90;;;;;;5157970;27;20057;-67
2022/11/28 05:07:26;;;;;;;10.52;7.53;;;7.50;99.90;;;;;;5157883;27;20417;-67
2022/11/28 05:09:52;;;;;;;11.45;8.02;;;7.70;99.90;;;;;;5158166;27;20039;-67
2022/11/28 05:12:18;;;;;;;13.23;8.75;;;7.30;99.90;;;;;;5157902;27;20050;-67
2022/11/28 05:14:43;;;;;;;13.45;8.45;;;7.40;99.90;;;;;;5156136;27;20043;-67
2022/11/28 05:17:12;;;;;;;13.57;9.65;;;7.00;99.90;;;;;;5157720;27;20387;-67
2022/11/28 05:19:37;;;;;;;13.27;9.00;;;7.40;99.90;;;;;;5157759;27;20043;-67
2022/11/28 05:22:09;;;;;;;12.43;8.88;;;7.30;99.90;;;;;;5139510;27;20061;-67
2022/11/28 05:24:35;;;;;;;12.75;9.10;;;7.40;99.90;;;;;;5157335;27;20478;-67
2022/11/28 05:27:01;;;;;;;14.07;9.60;;;7.20;99.90;;;;;;5157441;27;20068;-67
2022/11/28 05:29:27;;;;;;;12.80;9.00;;;7.20;99.90;;;;;;5158071;27;20138;-67
2022/11/28 05:31:53;;;;;;;13.32;9.10;;;7.00;99.90;;;;;;5139525;27;20043;-67
2022/11/28 05:34:18;;;;;;;15.25;10.68;;;7.40;99.90;;;;;;5157386;27;20057;-67
2022/11/28 05:36:44;;;;;;;17.73;10.55;;;7.40;99.90;;;;;;5157478;27;20053;-67
2022/11/28 05:39:10;;;;;;;13.55;9.60;;;6.90;99.90;;;;;;5157266;27;20094;-67
2022/11/28 05:41:35;;;;;;;14.10;10.02;;;7.50;99.90;;;;;;5157259;27;20125;-67
2022/11/28 05:44:01;;;;;;;14.80;9.63;;;7.20;99.90;;;;;;5156587;27;20049;-67
2022/11/28 05:46:28;;;;;;;16.45;9.45;;;7.20;99.90;;;;;;5156842;27;20126;-67
2022/11/28 05:48:54;;;;;;;14.32;9.32;;;7.20;99.90;;;;;;5157039;27;20038;-67
2022/11/28 05:51:20;;;;;;;13.43;9.27;;;7.30;99.90;;;;;;5156981;27;20475;-67
2022/11/28 05:53:46;;;;;;;16.95;11.55;;;7.40;99.90;;;;;;5157309;27;20049;-67
2022/11/28 05:56:17;;;;;;;16.17;10.63;;;7.20;99.90;;;;;;5156913;27;20038;-68
2022/11/28 05:58:43;;;;;;;15.02;10.43;;;7.20;99.90;;;;;;5156553;27;20110;-67
2022/11/28 06:01:17;;;;;;;14.60;10.35;;;7.40;99.90;;;;;;5156879;27;20077;-67
2022/11/28 06:03:43;;;;;;;19.85;11.68;;;7.10;99.90;;;;;;5156441;27;20046;-67
2022/11/28 06:06:14;;;;;;;13.18;9.93;;;7.40;99.90;;;;;;5156704;27;20045;-67
2022/11/28 06:08:41;;;;;;;14.95;10.70;;;7.50;99.90;;;;;;5138334;27;20099;-67
2022/11/28 06:11:07;;;;;;;16.02;11.95;;;7.40;99.90;;;;;;5156662;27;20038;-67
2022/11/28 06:13:33;;;;;;;13.30;10.43;;;7.70;99.90;;;;;;5156672;27;20093;-67
2022/11/28 06:15:58;;;;;;;14.68;10.23;;;7.60;99.90;;;;;;5156024;27;20074;-67
2022/11/28 06:18:24;;;;;;;15.13;11.60;;;7.40;99.90;;;;;;5156448;27;20095;-67
2022/11/28 06:20:50;;;;;;;18.55;12.15;;;7.20;99.90;;;;;;5156464;27;20039;-67
2022/11/28 06:23:16;;;;;;;20.48;13.50;;;7.40;99.90;;;;;;5137826;27;20071;-67
2022/11/28 06:25:41;;;;;;;15.95;12.18;;;7.50;99.90;;;;;;5152249;27;20057;-67
2022/11/28 06:28:07;;;;;;;17.30;11.75;;;7.30;99.90;;;;;;5135574;27;20521;-66
2022/11/28 06:30:33;;;;;;;20.48;13.15;;;7.50;99.90;;;;;;5135494;27;20135;-67
2022/11/28 06:32:58;;;;;;;17.15;14.38;;;7.40;99.90;;;;;;5117694;27;20364;-67
2022/11/28 06:35:24;;;;;;;23.08;16.13;;;7.20;99.90;;;;;;5100293;27;20112;-67
2022/11/28 06:37:50;;;;;;;21.35;14.52;;;7.60;99.90;;;;;;5135352;27;20039;-67
2022/11/28 06:40:15;;;;;;;38.35;34.15;;;7.60;99.90;;;;;;5100174;27;20055;-67
2022/11/28 06:42:41;;;;;;;35.10;31.55;;;7.20;99.90;;;;;;5135218;27;20047;-67
2022/11/28 06:45:08;;;;;;;24.23;20.60;;;7.80;99.90;;;;;;5134676;27;20043;-67
2022/11/28 06:47:34;;;;;;;23.55;19.38;;;7.40;99.90;;;;;;5135132;27;20061;-67
2022/11/28 06:49:59;;;;;;;20.88;16.00;;;7.80;99.90;;;;;;5135048;27;20126;-67
2022/11/28 06:52:25;;;;;;;21.83;16.42;;;7.60;99.90;;;;;;5135066;27;20039;-67
2022/11/28 06:54:51;;;;;;;19.10;14.70;;;8.20;99.90;;;;;;5135143;27;20051;-67
2022/11/28 06:57:17;;;;;;;20.48;14.70;;;7.80;99.90;;;;;;5135497;27;20413;-67
2022/11/28 06:59:42;;;;;;;19.25;14.50;;;7.70;99.90;;;;;;5116679;27;20142;-67
2022/11/28 07:02:10;;;;;;;20.27;14.07;;;7.50;99.90;;;;;;5134894;27;20043;-67
2022/11/28 07:04:36;;;;;;;17.90;14.05;;;7.40;99.90;;;;;;5134964;27;20058;-67
2022/11/28 07:07:02;;;;;;;18.88;13.60;;;7.30;99.90;;;;;;5116730;27;20095;-67
2022/11/28 07:09:28;;;;;;;20.30;15.05;;;7.70;99.90;;;;;;5134758;27;20099;-67
2022/11/28 07:11:54;;;;;;;23.05;14.30;;;7.40;99.90;;;;;;5134776;27;20046;-67
2022/11/28 07:14:19;;;;;;;20.52;15.70;;;7.40;99.90;;;;;;5134184;27;20047;-67
2022/11/28 07:16:47;;;;;;;18.45;13.82;;;7.80;99.90;;;;;;5134677;27;20039;-67
2022/11/28 07:19:13;;;;;;;21.45;15.27;;;7.80;99.90;;;;;;5116776;28;20108;-67
2022/11/28 07:21:40;;;;;;;21.67;16.38;;;7.40;99.90;;;;;;5134704;27;20107;-67
2022/11/28 07:24:06;;;;;;;20.77;14.73;;;7.90;99.90;;;;;;5135134;27;20043;-67
2022/11/28 07:26:32;;;;;;;20.00;14.35;;;7.70;99.90;;;;;;5134545;27;20467;-67
2022/11/28 07:28:58;;;;;;;21.33;14.82;;;8.10;99.90;;;;;;5116138;27;20042;-67
2022/11/28 07:31:27;;;;;;;20.45;14.65;;;7.40;99.90;;;;;;5134621;27;20053;-67
2022/11/28 07:33:53;;;;;;;19.20;14.10;;;7.50;99.90;;;;;;5134568;28;20046;-67
2022/11/28 07:36:24;;;;;;;19.33;14.60;;;7.60;99.90;;;;;;5134992;27;20142;-67
2022/11/28 07:38:52;;;;;;;24.48;20.42;;;7.70;99.90;;;;;;5123015;27;20054;-67
2022/11/28 07:41:19;;;;;;;19.95;16.70;;;7.50;99.90;;;;;;5123268;27;20047;-67
2022/11/28 07:43:46;;;;;;;23.48;21.02;;;7.90;99.90;;;;;;5141482;27;20047;-67
2022/11/28 07:46:16;;;;;;;18.45;14.98;;;7.60;99.90;;;;;;5140759;27;20082;-67
2022/11/28 07:48:43;;;;;;;17.55;12.82;;;7.50;99.90;;;;;;5141451;27;20047;-67
2022/11/28 07:51:11;;;;;;;15.90;12.60;;;7.80;99.90;;;;;;5122746;27;20047;-67
2022/11/28 07:53:37;;;;;;;19.58;13.63;;;7.60;99.90;;;;;;5141172;27;20078;-67
2022/11/28 07:56:05;;;;;;;16.30;12.10;;;7.90;99.90;;;;;;5141183;27;20043;-67
2022/11/28 07:58:32;;;;;;;14.63;11.43;;;7.50;99.90;;;;;;5140857;27;20066;-68
2022/11/28 08:00:58;;;;;;;19.90;14.70;;;7.80;99.90;;;;;;5141493;27;20050;-67
2022/11/28 08:03:24;;;;;;;14.18;11.75;;;7.90;99.90;;;;;;5105998;27;20402;-68
2022/11/28 08:05:49;;;;;;;16.83;12.45;;;7.90;99.90;;;;;;5141065;27;20395;-67
2022/11/28 08:08:16;;;;;;;16.10;12.73;;;7.70;99.90;;;;;;5141336;27;20039;-68
2022/11/28 08:10:42;;;;;;;18.73;13.68;;;8.20;99.90;;;;;;5140711;27;20483;-67
2022/11/28 08:13:08;;;;;;;14.43;11.85;;;7.90;99.90;;;;;;5141200;27;20055;-67
2022/11/28 08:15:38;;;;;;;16.58;10.95;;;7.60;99.90;;;;;;5140704;27;20558;-67
2022/11/28 08:18:04;;;;;;;17.05;12.90;;;8.00;99.90;;;;;;5140993;27;20039;-67
2022/11/28 08:20:30;;;;;;;15.43;11.23;;;7.60;99.90;;;;;;5140969;27;20127;-67
2022/11/28 08:22:55;;;;;;;15.85;11.57;;;8.20;99.90;;;;;;5140947;27;20121;-67
2022/11/28 08:25:21;;;;;;;16.50;12.07;;;7.90;99.90;;;;;;5105728;27;20092;-67
2022/11/28 08:27:47;;;;;;;15.02;10.80;;;7.70;99.90;;;;;;5122539;27;20049;-67
2022/11/28 08:30:13;;;;;;;16.58;11.75;;;8.10;99.90;;;;;;5122204;27;20499;-67
2022/11/28 08:32:39;;;;;;;15.07;11.43;;;7.70;99.90;;;;;;5140893;27;20058;-67
2022/11/28 08:35:05;;;;;;;17.88;15.13;;;8.30;99.90;;;;;;5140845;27;20039;-67
2022/11/28 08:37:31;;;;;;;15.70;14.00;;;7.70;99.90;;;;;;5140870;27;20047;-67
2022/11/28 08:39:56;;;;;;;15.88;10.82;;;7.70;99.90;;;;;;5122654;27;20039;-67
2022/11/28 08:42:22;;;;;;;18.83;11.98;;;7.90;99.90;;;;;;5141182;27;20050;-67
2022/11/28 08:44:48;;;;;;;19.25;11.93;;;7.70;99.90;;;;;;5140655;27;20441;-67
2022/11/28 08:47:14;;;;;;;19.42;12.73;;;8.10;99.90;;;;;;5122545;27;20057;-67
2022/11/28 08:49:40;;;;;;;17.60;12.32;;;7.90;99.90;;;;;;5119610;27;20086;-67
2022/11/28 08:52:06;;;;;;;18.55;12.18;;;7.90;99.90;;;;;;5137592;27;20475;-67
2022/11/28 08:54:32;;;;;;;17.13;12.35;;;7.80;99.90;;;;;;5137467;27;20368;-67
2022/11/28 08:56:57;;;;;;;18.35;12.35;;;7.90;99.90;;;;;;5137479;27;20046;-67
2022/11/28 08:59:24;;;;;;;15.73;11.77;;;8.10;99.90;;;;;;5118709;27;20063;-67
2022/11/28 09:01:54;;;;;;;17.30;13.57;;;8.00;99.90;;;;;;5119717;27;20050;-68
2022/11/28 09:04:20;;;;;;;20.30;13.15;;;8.00;99.90;;;;;;5119315;27;20051;-68
2022/11/28 09:06:46;;;;;;;17.38;12.45;;;7.90;99.90;;;;;;5119365;27;20246;-68
2022/11/28 09:09:12;;;;;;;17.10;12.65;;;8.00;99.90;;;;;;5118905;27;20121;-69
2022/11/28 09:11:38;;;;;;;15.18;10.90;;;8.10;99.90;;;;;;5102865;27;20039;-69
2022/11/28 09:14:04;;;;;;;18.23;13.27;;;7.90;99.90;;;;;;5118592;27;20099;-69
2022/11/28 09:16:30;;;;;;;15.48;11.60;;;7.70;99.90;;;;;;5137159;27;20042;-68
2022/11/28 09:18:58;;;;;;;18.33;12.18;;;7.90;99.90;;;;;;5118829;27;20039;-69
2022/11/28 09:21:24;;;;;;;18.35;13.23;;;7.90;99.90;;;;;;5119493;27;20107;-69
2022/11/28 09:23:53;;;;;;;22.35;17.02;;;8.10;99.90;;;;;;5119006;27;20108;-69
2022/11/28 09:26:20;;;;;;;21.70;16.08;;;8.10;99.90;;;;;;5136953;27;20395;-68
2022/11/28 09:28:47;;;;;;;15.63;12.30;;;7.80;99.90;;;;;;5119309;27;20047;-68
2022/11/28 09:31:14;;;;;;;28.60;20.67;;;8.00;99.90;;;;;;5136889;27;20050;-68
2022/11/28 09:33:41;;;;;;;29.27;25.33;;;7.90;99.90;;;;;;5136856;27;20476;-69
2022/11/28 09:36:10;;;;;;;26.38;19.17;;;7.80;99.90;;;;;;5136801;27;20046;-69
2022/11/28 09:38:36;;;;;;;17.15;13.55;;;7.80;99.90;;;;;;5118433;27;20082;-68
2022/11/28 09:41:03;;;;;;;24.35;16.88;;;7.90;99.90;;;;;;5136682;27;20047;-68
2022/11/28 09:43:41;;;;;;;21.88;15.50;;;7.80;99.90;;;;;;5136557;27;20098;-67
2022/11/28 09:46:16;;;;;;;20.23;13.60;;;7.90;99.90;;;;;;5125968;27;20050;-67
2022/11/28 09:48:50;;;;;;;19.63;13.75;;;8.20;99.90;;;;;;5157262;27;20047;-67
2022/11/28 09:51:42;;;;;;;19.33;12.90;;;8.10;99.90;;;;;;5157372;27;20043;-68
2022/11/28 09:54:12;;;;;;;20.58;13.60;;;7.90;99.90;;;;;;5138911;27;20046;-68
2022/11/28 09:56:38;;;;;;;21.30;13.93;;;8.50;99.90;;;;;;5138791;27;20525;-69
2022/11/28 09:59:23;;;;;;;24.17;15.27;;;8.40;99.90;;;;;;5154152;27;20082;-70
2022/11/28 10:02:13;;;;;;;25.75;16.02;;;7.80;99.90;;;;;;5127265;27;20383;-70
2022/11/28 10:04:45;;;;;;;25.55;17.15;;;7.90;99.90;;;;;;5126192;27;20050;-70
2022/11/28 10:07:40;;;;;;;20.35;13.35;;;7.90;99.90;;;;;;5145924;27;20040;-69
2022/11/28 10:10:36;;;;;;;26.30;15.00;;;8.00;99.90;;;;;;5145074;27;20046;-70
2022/11/28 10:13:11;;;;;;;20.33;13.40;;;7.90;99.90;;;;;;5147009;27;20386;-70
2022/11/28 10:16:02;;;;;;;21.92;14.27;;;7.90;99.90;;;;;;5146284;27;20039;-69
2022/11/28 10:18:51;;;;;;;21.73;14.07;;;8.00;99.90;;;;;;5127061;27;20101;-68
2022/11/28 10:21:34;;;;;;;22.02;14.07;;;7.90;99.90;;;;;;5126937;27;20055;-67
2022/11/28 10:24:11;;;;;;;20.17;12.80;;;8.10;99.90;;;;;;5148536;27;20050;-69
2022/11/28 10:26:46;;;;;;;18.38;12.65;;;7.90;99.90;;;;;;5147252;27;20091;-67
2022/11/28 10:29:28;;;;;;;35.22;24.35;;;8.10;99.90;;;;;;5145227;27;20491;-68
2022/11/28 10:31:56;;;;;;;66.93;49.85;;;8.00;99.90;;;;;;5145806;27;20062;-67
2022/11/28 10:34:51;;;;;;;27.15;19.85;;;8.30;99.90;;;;;;5144320;27;20050;-68
2022/11/28 10:37:26;;;;;;;18.63;12.07;;;8.00;99.90;;;;;;5145840;27;20047;-67
2022/11/28 10:39:51;;;;;;;18.23;12.73;;;7.90;99.90;;;;;;5145033;27;20437;-67
2022/11/28 10:42:21;;;;;;;18.40;12.27;;;8.00;99.90;;;;;;5126238;27;20099;-67
2022/11/28 11:03:38;;;;;;;22.92;16.42;;;7.60;99.90;;;;;;5110151;27;20457;-75
2022/11/28 11:06:06;;;;;;;26.35;23.92;;;8.10;99.90;;;;;;5110501;28;20105;-79
2022/11/28 11:08:41;;;;;;;20.27;17.02;;;8.00;99.90;;;;;;5110400;28;20044;-79
2022/11/28 11:11:26;;;;;;;20.58;14.32;;;8.00;99.90;;;;;;5108179;28;20036;-79
2022/11/28 11:14:02;;;;;;;16.42;11.85;;;7.90;99.90;;;;;;5109196;28;20044;-79
2022/11/28 11:16:51;;;;;;;13.55;10.90;;;8.60;99.90;;;;;;5107397;28;20066;-78
2022/11/28 11:19:38;;;;;;;16.58;12.75;;;8.10;99.90;;;;;;5109637;28;20043;-78
2022/11/28 11:22:27;;;;;;;19.35;15.35;;;7.60;99.90;;;;;;5107375;28;20048;-78
2022/11/28 11:25:14;;;;;;;16.55;13.95;;;7.90;99.90;;;;;;5106618;28;20864;-79
2022/11/28 11:28:01;;;;;;;19.15;13.45;;;8.20;99.90;;;;;;5109105;28;20047;-79
2022/11/28 11:30:29;;;;;;;14.48;9.75;;;7.90;99.90;;;;;;5106713;28;20040;-76
2022/11/28 11:32:57;;;;;;;15.93;13.48;;;8.00;99.90;;;;;;5091416;28;20043;-79
2022/11/28 11:35:35;;;;;;;14.00;11.25;;;8.00;99.90;;;;;;5105697;28;20097;-78
2022/11/28 11:38:15;;;;;;;14.63;12.05;;;7.90;99.90;;;;;;5109926;28;20040;-78
2022/11/28 11:40:41;;;;;;;17.05;12.35;;;8.20;99.90;;;;;;5109909;28;20549;-78
2022/11/28 11:43:27;;;;;;;14.63;11.18;;;8.00;99.90;;;;;;5114789;28;20035;-76
2022/11/28 11:46:14;;;;;;;17.30;10.75;;;8.00;99.90;;;;;;5107811;28;20086;-76
2022/11/28 11:48:41;;;;;;;33.58;29.75;;;8.20;99.90;;;;;;5108172;28;20504;-75
2022/11/28 11:51:23;;;;;;;31.52;25.55;;;8.00;99.90;;;;;;5109699;28;20044;-75
2022/11/28 11:54:12;;;;;;;20.05;14.38;;;8.00;99.90;;;;;;5108004;28;20082;-78
2022/11/28 11:56:41;;;;;;;17.63;15.13;;;8.00;99.90;;;;;;5095596;28;20056;-76
2022/11/28 11:59:19;;;;;;;28.40;25.75;;;8.30;99.90;;;;;;5091325;28;20043;-76
2022/11/28 12:01:50;;;;;;;19.30;17.38;;;8.10;99.90;;;;;;5104097;28;20043;-78
2022/11/28 12:04:22;;;;;;;13.63;11.18;;;8.00;99.90;;;;;;5094358;28;20083;-79
2022/11/28 12:06:51;;;;;;;16.00;14.32;;;8.00;99.90;;;;;;5091770;28;20101;-78
2022/11/28 12:09:47;;;;;;;16.95;13.35;;;8.00;99.90;;;;;;5093882;28;20412;-75
2022/11/28 12:12:23;;;;;;;14.48;10.90;;;8.00;99.90;;;;;;5091325;28;20447;-79
2022/11/28 12:14:49;;;;;;;15.13;10.82;;;8.00;99.90;;;;;;5092474;28;20046;-80
2022/11/28 12:17:47;;;;;;;16.73;11.20;;;8.10;99.90;;;;;;5061579;28;20058;-80
2022/11/28 12:20:24;;;;;;;13.27;9.45;;;7.90;99.90;;;;;;5117684;27;20052;-81
2022/11/28 12:23:01;;;;;;;11.98;9.85;;;8.30;99.90;;;;;;5092429;28;20043;-79
2022/11/28 12:25:54;;;;;;;15.18;10.90;;;8.30;99.90;;;;;;5103690;28;20296;-79
2022/11/28 12:28:45;;;;;;;12.82;9.32;;;8.30;99.90;;;;;;5080281;28;20504;-78
2022/11/28 12:31:47;;;;;;;14.40;10.93;;;8.00;99.90;;;;;;5093984;28;20052;-77
2022/11/28 12:34:12;;;;;;;19.17;11.55;;;8.90;99.90;;;;;;5052475;28;20053;-76
2022/11/28 12:37:12;;;;;;;16.40;11.15;;;8.40;99.90;;;;;;5078714;28;20063;-77
2022/11/28 12:40:06;;;;;;;15.80;10.38;;;8.10;99.90;;;;;;5092793;28;20047;-75
2022/11/28 12:42:35;;;;;;;18.17;12.57;;;8.00;99.90;;;;;;5073414;28;20048;-77
2022/11/28 12:45:17;;;;;;;17.42;12.38;;;8.30;99.90;;;;;;5094231;28;20097;-79
2022/11/28 12:48:07;;;;;;;20.52;14.63;;;8.10;99.90;;;;;;5091003;28;20077;-78
2022/11/28 12:50:45;;;;;;;19.58;17.60;;;7.60;99.90;;;;;;5091813;28;20036;-78
2022/11/28 12:53:28;;;;;;;21.75;14.10;;;8.10;99.90;;;;;;5092392;28;20040;-77
2022/11/28 12:56:08;;;;;;;18.97;13.73;;;8.00;99.90;;;;;;5092899;28;20036;-77
2022/11/28 12:58:50;;;;;;;14.60;12.10;;;8.10;99.90;;;;;;5092299;28;20313;-72
2022/11/28 13:01:51;;;;;;;15.93;12.10;;;8.10;99.90;;;;;;5093802;28;20048;-75
2022/11/28 13:04:33;;;;;;;19.50;11.77;;;8.40;99.90;;;;;;5095479;28;20059;-80
2022/11/28 13:07:26;;;;;;;15.40;11.57;;;8.10;99.90;;;;;;5080704;28;20054;-79
2022/11/28 13:10:07;;;;;;;16.83;11.55;;;8.10;99.90;;;;;;5078042;28;20042;-78
2022/11/28 13:12:44;;;;;;;16.00;11.05;;;8.10;99.90;;;;;;5093829;28;20160;-82
2022/11/28 13:15:20;;;;;;;14.63;11.00;;;8.20;99.90;;;;;;5094129;28;20180;-81
2022/11/28 13:18:01;;;;;;;17.92;12.07;;;8.10;99.90;;;;;;5093296;28;20473;-76
2022/11/28 13:20:33;;;;;;;20.58;12.90;;;8.10;99.90;;;;;;5058398;28;20059;-75
2022/11/28 13:23:16;;;;;;;15.48;11.32;;;8.00;99.90;;;;;;5093215;28;20052;-76
2022/11/28 13:25:42;;;;;;;17.33;11.93;;;8.10;99.90;;;;;;5093232;28;20073;-75
2022/11/28 13:28:17;;;;;;;23.60;13.50;;;8.10;99.90;;;;;;5092813;28;20063;-76
2022/11/28 13:31:05;;;;;;;17.52;11.32;;;8.20;99.90;;;;;;5092996;28;20152;-75